Kasagimaru — JJ3905 — position and weather

sailwx.info

Track history (hours):
 
Tides and Currents Weather Stations Pressure Air Temp Water Temp Dewpoint Dewpoint Depression Visibility Wind Speed Wind Dir Waves Ship Positions

Kasagimaru

Last reported at 2014-Dec-21 00:29 UTC. Time now 2014-Dec-22 02:07 UTC.
Position N 34°37' E 134°41'.

Length 42 m; draft 3.5 m.

Type: Tug. MMSI: 431300268.

Date/timePositionNaut miles runAvg speedWind from/ knotsBaromVisibWave heightAir tempDewpointWater temp
2014-Dec-21 00:29N 34°37' E 134°41'10 8.9
2014-Dec-20 23:23N 34°35' E 134°53'1012.0
2014-Dec-20 22:33N 34°36' E 135°05'6 6.0
2014-Dec-20 21:33N 34°30' E 135°08'1412.6
2014-Dec-20 20:25N 34°18' E 134°60'7 8.1
2014-Dec-20 19:33N 34°11' E 135°02'6 6.3
2014-Dec-20 18:34N 34°13' E 135°09'0 0.0
2014-Dec-20 17:34N 34°13' E 135°09'0 0.0
2014-Dec-20 16:33N 34°13' E 135°09'0 0.0
2014-Dec-20 15:34N 34°13' E 135°09'0 0.0
2014-Dec-20 14:34N 34°13' E 135°09'0 0.0
2014-Dec-20 13:34N 34°13' E 135°09'0 0.0
2014-Dec-20 12:34N 34°13' E 135°09'7 6.1
2014-Dec-20 11:23N 34°19' E 135°04'1112.3
2014-Dec-20 10:31N 34°25' E 135°15'1212.2
2014-Dec-20 09:33N 34°33' E 135°25'1 1.0
2014-Dec-20 08:21N 34°33' E 135°27'3 3.3
2014-Dec-20 07:33N 34°31' E 135°24'8 8.2
2014-Dec-20 06:33N 34°34' E 135°15'28 0.8
2014-Dec-18 21:23N 34°37' E 134°41'12 9.5
2014-Dec-18 20:08N 34°37' E 134°55'813.5
2014-Dec-18 19:33N 34°36' E 135°05'7 6.7
2014-Dec-18 18:33N 34°29' E 135°06'1212.0
2014-Dec-18 17:33N 34°18' E 134°60'7 6.9
2014-Dec-18 16:33N 34°11' E 135°02'6 0.5
2014-Dec-18 04:20N 34°13' E 135°09'12 0.3
2014-Dec-16 05:27N 34°13' E 134°55'1213.0
2014-Dec-16 04:31N 34°23' E 135°02'1414.5
2014-Dec-16 03:33N 34°31' E 135°16'8 7.6
2014-Dec-16 02:32N 34°33' E 135°25'0 0.1
2014-Dec-16 01:32N 34°33' E 135°25'0 0.1
2014-Dec-16 00:07N 34°33' E 135°25'0 0.3
2014-Dec-15 23:33N 34°33' E 135°25'0 0.0
2014-Dec-15 22:29N 34°33' E 135°25'0 0.1
2014-Dec-15 21:33N 34°33' E 135°25'0 0.1
2014-Dec-15 20:33N 34°33' E 135°25'0 0.1
2014-Dec-15 19:33N 34°33' E 135°25'0 0.1
2014-Dec-15 18:33N 34°33' E 135°25'0 0.1
2014-Dec-15 17:33N 34°33' E 135°25'0 0.1
2014-Dec-15 16:34N 34°33' E 135°25'0 0.1
2014-Dec-15 15:30N 34°33' E 135°25'0 0.0
2014-Dec-15 14:33N 34°33' E 135°25'0 0.1
2014-Dec-15 13:32N 34°33' E 135°25'0 0.1
2014-Dec-15 12:33N 34°33' E 135°25'0 0.1
2014-Dec-15 11:33N 34°33' E 135°25'0 0.1
2014-Dec-15 10:32N 34°33' E 135°25'0 0.1
2014-Dec-15 09:33N 34°33' E 135°25'0 0.1
2014-Dec-15 08:33N 34°33' E 135°25'0 0.1
2014-Dec-15 07:28N 34°33' E 135°25'0 0.1
2014-Dec-15 06:29N 34°33' E 135°25'0 0.1
2014-Dec-15 05:33N 34°33' E 135°25'0 0.0
2014-Dec-15 04:32N 34°33' E 135°25'0 0.1
2014-Dec-15 03:33N 34°33' E 135°25'0 0.1
2014-Dec-15 02:33N 34°33' E 135°25'0 0.1
2014-Dec-15 01:33N 34°33' E 135°25'4 3.9
2014-Dec-15 00:33N 34°34' E 135°20'2 1.7
2014-Dec-14 23:33N 34°32' E 135°19'7 6.7
2014-Dec-14 22:33N 34°33' E 135°27'0 0.0
2014-Dec-14 21:33N 34°33' E 135°27'0 0.0
2014-Dec-14 20:33N 34°33' E 135°27'0 0.0
2014-Dec-14 19:33N 34°33' E 135°27'0 0.0
2014-Dec-14 18:33N 34°33' E 135°27'0 0.0
2014-Dec-14 17:33N 34°33' E 135°27'0 0.0
2014-Dec-14 16:33N 34°33' E 135°27'0 0.0
2014-Dec-14 15:33N 34°33' E 135°27'0 0.0
2014-Dec-14 14:33N 34°33' E 135°27'0 0.0
2014-Dec-14 13:33N 34°33' E 135°27'0 0.0
2014-Dec-14 12:33N 34°33' E 135°27'0 0.0
2014-Dec-14 11:33N 34°33' E 135°27'0 0.0
2014-Dec-14 10:33N 34°33' E 135°27'0 0.0
2014-Dec-14 09:33N 34°33' E 135°27'0 0.0
2014-Dec-14 08:33N 34°33' E 135°27'0 0.0
2014-Dec-14 07:33N 34°33' E 135°27'3 3.2
2014-Dec-14 06:33N 34°32' E 135°23'1312.3
2014-Dec-14 05:32N 34°26' E 135°10'1312.7
2014-Dec-14 04:31N 34°16' E 134°59'1111.2
2014-Dec-14 03:33N 34°27' E 135°03'9 9.2
2014-Dec-14 02:33N 34°36' E 135°03'19 8.6
2014-Dec-14 00:23N 34°41' E 134°42'  
2014-Dec-11 03:14N 34°30' E 135°05'5 7.0
2014-Dec-11 02:33N 34°35' E 135°04'  
Track history (hours):
 
Tides and Currents Weather Stations Pressure Air Temp Water Temp Dewpoint Dewpoint Depression Visibility Wind Speed Wind Dir Waves Ship Positions

Kasagimaru

Last reported at 2014-Dec-21 00:29 UTC. Time now 2014-Dec-22 02:07 UTC.
Position N 34°37' E 134°41'.

Length 42 m; draft 3.5 m.

Type: Tug. MMSI: 431300268.

Date/timePositionNaut miles runAvg speedWind from/ knotsBaromVisibWave heightAir tempDewpointWater temp
2014-Dec-21 00:29N 34°37' E 134°41'10 8.9
2014-Dec-20 23:23N 34°35' E 134°53'1012.0
2014-Dec-20 22:33N 34°36' E 135°05'6 6.0
2014-Dec-20 21:33N 34°30' E 135°08'1412.6
2014-Dec-20 20:25N 34°18' E 134°60'7 8.1
2014-Dec-20 19:33N 34°11' E 135°02'6 6.3
2014-Dec-20 18:34N 34°13' E 135°09'0 0.0
2014-Dec-20 17:34N 34°13' E 135°09'0 0.0
2014-Dec-20 16:33N 34°13' E 135°09'0 0.0
2014-Dec-20 15:34N 34°13' E 135°09'0 0.0
2014-Dec-20 14:34N 34°13' E 135°09'0 0.0
2014-Dec-20 13:34N 34°13' E 135°09'0 0.0
2014-Dec-20 12:34N 34°13' E 135°09'7 6.1
2014-Dec-20 11:23N 34°19' E 135°04'1112.3
2014-Dec-20 10:31N 34°25' E 135°15'1212.2
2014-Dec-20 09:33N 34°33' E 135°25'1 1.0
2014-Dec-20 08:21N 34°33' E 135°27'3 3.3
2014-Dec-20 07:33N 34°31' E 135°24'8 8.2
2014-Dec-20 06:33N 34°34' E 135°15'28 0.8
2014-Dec-18 21:23N 34°37' E 134°41'12 9.5
2014-Dec-18 20:08N 34°37' E 134°55'813.5
2014-Dec-18 19:33N 34°36' E 135°05'7 6.7
2014-Dec-18 18:33N 34°29' E 135°06'1212.0
2014-Dec-18 17:33N 34°18' E 134°60'7 6.9
2014-Dec-18 16:33N 34°11' E 135°02'6 0.5
2014-Dec-18 04:20N 34°13' E 135°09'12 0.3
2014-Dec-16 05:27N 34°13' E 134°55'1213.0
2014-Dec-16 04:31N 34°23' E 135°02'1414.5
2014-Dec-16 03:33N 34°31' E 135°16'8 7.6
2014-Dec-16 02:32N 34°33' E 135°25'0 0.1
2014-Dec-16 01:32N 34°33' E 135°25'0 0.1
2014-Dec-16 00:07N 34°33' E 135°25'0 0.3
2014-Dec-15 23:33N 34°33' E 135°25'0 0.0
2014-Dec-15 22:29N 34°33' E 135°25'0 0.1
2014-Dec-15 21:33N 34°33' E 135°25'0 0.1
2014-Dec-15 20:33N 34°33' E 135°25'0 0.1
2014-Dec-15 19:33N 34°33' E 135°25'0 0.1
2014-Dec-15 18:33N 34°33' E 135°25'0 0.1
2014-Dec-15 17:33N 34°33' E 135°25'0 0.1
2014-Dec-15 16:34N 34°33' E 135°25'0 0.1
2014-Dec-15 15:30N 34°33' E 135°25'0 0.0
2014-Dec-15 14:33N 34°33' E 135°25'0 0.1
2014-Dec-15 13:32N 34°33' E 135°25'0 0.1
2014-Dec-15 12:33N 34°33' E 135°25'0 0.1
2014-Dec-15 11:33N 34°33' E 135°25'0 0.1
2014-Dec-15 10:32N 34°33' E 135°25'0 0.1
2014-Dec-15 09:33N 34°33' E 135°25'0 0.1
2014-Dec-15 08:33N 34°33' E 135°25'0 0.1
2014-Dec-15 07:28N 34°33' E 135°25'0 0.1
2014-Dec-15 06:29N 34°33' E 135°25'0 0.1
2014-Dec-15 05:33N 34°33' E 135°25'0 0.0
2014-Dec-15 04:32N 34°33' E 135°25'0 0.1
2014-Dec-15 03:33N 34°33' E 135°25'0 0.1
2014-Dec-15 02:33N 34°33' E 135°25'0 0.1
2014-Dec-15 01:33N 34°33' E 135°25'4 3.9
2014-Dec-15 00:33N 34°34' E 135°20'2 1.7
2014-Dec-14 23:33N 34°32' E 135°19'7 6.7
2014-Dec-14 22:33N 34°33' E 135°27'0 0.0
2014-Dec-14 21:33N 34°33' E 135°27'0 0.0
2014-Dec-14 20:33N 34°33' E 135°27'0 0.0
2014-Dec-14 19:33N 34°33' E 135°27'0 0.0
2014-Dec-14 18:33N 34°33' E 135°27'0 0.0
2014-Dec-14 17:33N 34°33' E 135°27'0 0.0
2014-Dec-14 16:33N 34°33' E 135°27'0 0.0
2014-Dec-14 15:33N 34°33' E 135°27'0 0.0
2014-Dec-14 14:33N 34°33' E 135°27'0 0.0
2014-Dec-14 13:33N 34°33' E 135°27'0 0.0
2014-Dec-14 12:33N 34°33' E 135°27'0 0.0
2014-Dec-14 11:33N 34°33' E 135°27'0 0.0
2014-Dec-14 10:33N 34°33' E 135°27'0 0.0
2014-Dec-14 09:33N 34°33' E 135°27'0 0.0
2014-Dec-14 08:33N 34°33' E 135°27'0 0.0
2014-Dec-14 07:33N 34°33' E 135°27'3 3.2
2014-Dec-14 06:33N 34°32' E 135°23'1312.3
2014-Dec-14 05:32N 34°26' E 135°10'1312.7
2014-Dec-14 04:31N 34°16' E 134°59'1111.2
2014-Dec-14 03:33N 34°27' E 135°03'9 9.2
2014-Dec-14 02:33N 34°36' E 135°03'19 8.6
2014-Dec-14 00:23N 34°41' E 134°42'  
2014-Dec-11 03:14N 34°30' E 135°05'5 7.0
2014-Dec-11 02:33N 34°35' E 135°04'  

Dump ship's entire track history